Time;durP1;ratioP1;P1;durP2;ratioP2;P2;SDS_P1;SDS_P2;PMS_P1;PMS_P2;Temp;Humidity;BMP_temperature;BMP_pressure;BME280_temperature;BME280_humidity;BME280_pressure;Samples;Min_cycle;Max_cycle;Signal;HPM_P1;HPM_P2
2021/10/27 00:00:11;;;;;;;16.25;7.38;;;12.40;88.40;;;;;;5055239;28;20095;-64
2021/10/27 00:02:37;;;;;;;13.43;7.03;;;12.40;88.10;;;;;;5046658;28;20021;-64
2021/10/27 00:05:05;;;;;;;16.88;7.85;;;12.40;88.30;;;;;;5043934;28;20155;-65
2021/10/27 00:07:31;;;;;;;14.23;6.72;;;12.40;87.90;;;;;;5052004;28;20021;-65
2021/10/27 00:09:58;;;;;;;16.63;8.05;;;12.40;88.50;;;;;;5052109;28;20110;-64
2021/10/27 00:12:24;;;;;;;15.20;7.43;;;12.40;88.30;;;;;;5040733;28;20030;-64
2021/10/27 00:14:49;;;;;;;11.18;6.10;;;12.40;89.00;;;;;;5040684;28;20091;-65
2021/10/27 00:17:15;;;;;;;12.40;6.60;;;12.40;89.30;;;;;;5043120;28;20547;-64
2021/10/27 00:19:41;;;;;;;12.60;6.35;;;12.40;89.80;;;;;;5056002;28;20047;-64
2021/10/27 00:22:07;;;;;;;19.23;7.00;;;12.40;89.70;;;;;;5051520;28;20017;-66
2021/10/27 00:24:32;;;;;;;25.55;7.30;;;12.40;89.50;;;;;;5053283;28;20038;-66
2021/10/27 00:26:58;;;;;;;23.63;6.82;;;12.40;89.70;;;;;;5051240;28;20029;-66
2021/10/27 00:29:24;;;;;;;33.55;7.95;;;12.40;89.70;;;;;;5048544;28;20400;-67
2021/10/27 00:31:50;;;;;;;36.78;7.18;;;12.40;90.00;;;;;;5051461;28;20039;-66
2021/10/27 00:34:16;;;;;;;33.28;8.15;;;12.40;90.00;;;;;;5035588;28;20041;-66
2021/10/27 00:36:41;;;;;;;119.03;9.18;;;12.40;89.90;;;;;;5052695;28;20027;-66
2021/10/27 00:39:07;;;;;;;98.13;8.13;;;12.50;90.00;;;;;;5041164;28;20476;-66
2021/10/27 00:41:33;;;;;;;110.97;7.65;;;12.50;90.10;;;;;;5045862;28;20029;-67
2021/10/27 00:43:59;;;;;;;91.53;6.93;;;12.50;90.10;;;;;;5051873;28;20498;-66
2021/10/27 00:46:25;;;;;;;86.28;6.80;;;12.50;90.10;;;;;;5051356;28;20045;-64
2021/10/27 00:48:52;;;;;;;90.22;7.50;;;12.50;90.10;;;;;;5052000;28;20025;-66
2021/10/27 00:51:19;;;;;;;170.95;8.40;;;12.50;90.10;;;;;;5051446;28;20029;-66
2021/10/27 00:53:46;;;;;;;71.32;7.15;;;12.50;90.10;;;;;;5055200;28;20040;-66
2021/10/27 00:56:13;;;;;;;87.30;6.30;;;12.50;90.20;;;;;;5047506;28;20033;-66
2021/10/27 00:58:40;;;;;;;71.60;5.90;;;12.50;90.20;;;;;;5047205;28;20025;-66
2021/10/27 01:01:07;;;;;;;90.97;6.30;;;12.50;90.20;;;;;;5050211;28;20066;-66
2021/10/27 01:03:35;;;;;;;60.45;5.38;;;12.50;90.20;;;;;;5050716;28;20036;-66
2021/10/27 01:06:03;;;;;;;67.07;5.25;;;12.40;90.00;;;;;;5048969;28;20037;-65
2021/10/27 01:08:29;;;;;;;81.78;6.10;;;12.40;90.20;;;;;;5050013;28;20049;-66
2021/10/27 01:10:55;;;;;;;56.22;6.25;;;12.40;90.60;;;;;;5050775;28;20055;-66
2021/10/27 01:13:21;;;;;;;40.10;4.18;;;12.30;90.10;;;;;;5051963;28;20476;-66
2021/10/27 01:15:46;;;;;;;93.00;5.90;;;12.30;90.00;;;;;;5047715;28;20617;-66
2021/10/27 01:18:13;;;;;;;46.25;4.95;;;12.30;89.80;;;;;;5050452;28;20033;-66
2021/10/27 01:20:39;;;;;;;29.55;4.35;;;12.30;89.80;;;;;;5050158;28;20585;-66
2021/10/27 01:23:04;;;;;;;51.47;5.78;;;12.30;89.80;;;;;;5049280;28;20021;-66
2021/10/27 01:25:30;;;;;;;92.05;6.90;;;12.30;90.10;;;;;;5035837;28;20123;-66
2021/10/27 01:27:56;;;;;;;64.50;5.22;;;12.30;90.00;;;;;;5052950;28;20032;-66
2021/10/27 01:30:23;;;;;;;76.13;5.43;;;12.30;90.00;;;;;;5051458;28;20531;-66
2021/10/27 01:32:50;;;;;;;78.35;4.97;;;12.20;90.00;;;;;;5054080;28;20021;-66
2021/10/27 01:35:19;;;;;;;40.33;3.95;;;12.20;90.00;;;;;;5049478;28;20033;-66
2021/10/27 01:37:47;;;;;;;47.80;4.45;;;12.20;90.00;;;;;;5050911;28;20063;-66
2021/10/27 01:40:20;;;;;;;38.22;4.55;;;12.20;90.00;;;;;;5034112;28;20037;-66
2021/10/27 01:42:55;;;;;;;37.17;4.10;;;12.10;89.90;;;;;;5038525;28;20029;-66
2021/10/27 01:45:32;;;;;;;44.17;5.10;;;12.10;89.80;;;;;;5047283;28;20044;-66
2021/10/27 01:48:00;;;;;;;79.07;4.95;;;12.10;89.80;;;;;;5049706;28;20547;-66
2021/10/27 01:50:31;;;;;;;65.18;5.20;;;12.10;89.60;;;;;;5049840;28;20086;-66
2021/10/27 01:53:01;;;;;;;89.28;5.68;;;12.20;89.80;;;;;;5049699;28;20086;-66
2021/10/27 01:55:30;;;;;;;64.85;4.90;;;12.20;89.60;;;;;;5049086;28;20779;-66
2021/10/27 01:57:59;;;;;;;57.38;4.53;;;12.20;89.40;;;;;;5049463;28;20126;-66
2021/10/27 02:00:28;;;;;;;34.75;4.25;;;12.30;89.40;;;;;;5050106;28;20040;-66
2021/10/27 02:02:57;;;;;;;52.20;4.22;;;12.30;89.40;;;;;;5049807;28;20029;-66
2021/10/27 02:05:25;;;;;;;50.05;4.32;;;12.30;89.30;;;;;;5045613;28;20025;-66
2021/10/27 02:07:54;;;;;;;58.42;4.35;;;12.30;89.20;;;;;;5038173;28;20057;-66
2021/10/27 02:10:20;;;;;;;127.70;5.57;;;12.40;89.10;;;;;;5033378;28;20511;-66
2021/10/27 02:12:46;;;;;;;106.60;5.55;;;12.40;88.90;;;;;;5050398;28;20049;-66
2021/10/27 02:15:12;;;;;;;79.03;5.45;;;12.50;88.70;;;;;;5038499;28;20392;-66
2021/10/27 02:17:39;;;;;;;59.03;4.70;;;12.50;89.60;;;;;;5038251;28;20025;-66
2021/10/27 02:20:09;;;;;;;111.88;5.32;;;12.50;88.80;;;;;;5045009;28;20091;-66
2021/10/27 02:22:36;;;;;;;73.15;5.20;;;12.50;88.50;;;;;;5046748;28;20044;-66
2021/10/27 02:25:02;;;;;;;84.18;5.47;;;12.60;88.70;;;;;;5046772;28;20523;-66
2021/10/27 02:27:28;;;;;;;54.25;4.70;;;12.60;88.80;;;;;;5048606;28;20025;-66
2021/10/27 02:29:53;;;;;;;33.53;4.28;;;12.50;88.90;;;;;;5047755;28;20032;-66
2021/10/27 02:32:19;;;;;;;79.65;6.40;;;12.60;89.30;;;;;;5047379;28;20585;-66
2021/10/27 02:34:45;;;;;;;86.95;6.13;;;12.50;89.50;;;;;;5048033;28;20124;-66
2021/10/27 02:37:11;;;;;;;67.28;6.10;;;12.50;89.60;;;;;;5047203;28;20179;-66
2021/10/27 02:39:37;;;;;;;61.22;5.50;;;12.50;89.70;;;;;;5045670;28;20100;-66
2021/10/27 02:42:03;;;;;;;86.60;6.68;;;12.50;90.10;;;;;;5047426;28;20071;-66
2021/10/27 02:44:29;;;;;;;143.02;7.05;;;12.50;90.00;;;;;;5043191;28;20021;-66
2021/10/27 02:46:54;;;;;;;87.43;7.32;;;12.50;90.00;;;;;;5047400;28;20036;-66
2021/10/27 02:49:20;;;;;;;50.10;5.78;;;12.50;90.00;;;;;;5048164;28;20021;-66
2021/10/27 02:51:46;;;;;;;64.15;6.30;;;12.50;89.80;;;;;;5048790;28;20049;-66
2021/10/27 02:54:12;;;;;;;96.18;6.68;;;12.50;90.00;;;;;;5035135;28;20397;-66
2021/10/27 02:56:39;;;;;;;62.83;6.10;;;12.50;90.00;;;;;;5047983;28;20052;-66
2021/10/27 02:59:04;;;;;;;64.03;6.47;;;12.50;90.00;;;;;;5048713;28;20029;-66
2021/10/27 03:01:30;;;;;;;68.20;6.57;;;12.50;90.10;;;;;;5033824;28;20365;-66
2021/10/27 03:03:56;;;;;;;163.30;9.32;;;12.50;90.10;;;;;;5049025;28;20027;-66
2021/10/27 03:06:22;;;;;;;52.13;7.03;;;12.50;90.10;;;;;;5049867;28;20029;-66
2021/10/27 03:08:47;;;;;;;42.85;4.82;;;12.50;90.10;;;;;;5043809;28;21539;-66
2021/10/27 03:11:14;;;;;;;112.40;7.68;;;12.50;90.10;;;;;;5045688;28;20796;-66
2021/10/27 03:13:40;;;;;;;50.35;7.05;;;12.50;90.10;;;;;;5048235;28;20028;-66
2021/10/27 03:16:06;;;;;;;54.28;7.70;;;12.50;90.20;;;;;;5048326;28;20111;-66
2021/10/27 03:18:32;;;;;;;83.68;7.47;;;12.50;90.30;;;;;;5050440;28;20496;-66
2021/10/27 03:20:59;;;;;;;119.57;7.95;;;12.50;90.40;;;;;;5039829;28;20084;-66
2021/10/27 03:23:24;;;;;;;74.20;6.63;;;12.40;90.50;;;;;;5037749;28;20025;-66
2021/10/27 03:25:50;;;;;;;79.88;7.68;;;12.40;90.70;;;;;;5037063;28;20655;-66
2021/10/27 03:28:16;;;;;;;82.32;8.40;;;12.40;90.70;;;;;;5048136;28;20045;-66
2021/10/27 03:30:42;;;;;;;80.82;7.95;;;12.40;90.80;;;;;;5040010;28;20072;-66
2021/10/27 03:33:08;;;;;;;84.25;8.20;;;12.40;90.70;;;;;;5048827;28;20064;-66
2021/10/27 03:35:34;;;;;;;109.85;8.63;;;12.50;90.80;;;;;;5047900;28;20045;-66
2021/10/27 03:38:00;;;;;;;150.05;9.40;;;12.50;90.90;;;;;;5048156;28;20025;-66
2021/10/27 03:40:25;;;;;;;119.75;8.23;;;12.50;90.80;;;;;;5033109;28;20037;-66
2021/10/27 03:42:51;;;;;;;58.05;5.95;;;12.50;90.70;;;;;;5049261;28;20017;-66
2021/10/27 03:45:17;;;;;;;82.85;7.60;;;12.50;90.90;;;;;;5037551;28;20045;-66
2021/10/27 03:47:43;;;;;;;68.85;6.45;;;12.60;90.90;;;;;;5043268;28;20025;-66
2021/10/27 03:50:13;;;;;;;59.15;6.75;;;12.60;91.00;;;;;;5045521;28;20025;-66
2021/10/27 03:52:40;;;;;;;93.68;8.05;;;12.50;91.10;;;;;;5035146;28;20483;-66
2021/10/27 03:55:06;;;;;;;59.70;7.00;;;12.50;91.00;;;;;;5050156;28;20029;-66
2021/10/27 03:57:32;;;;;;;112.43;8.93;;;12.50;91.10;;;;;;5051075;28;20472;-66
2021/10/27 03:59:59;;;;;;;38.92;6.70;;;12.60;91.00;;;;;;5050800;28;20027;-66
2021/10/27 04:02:25;;;;;;;72.05;8.25;;;12.50;91.10;;;;;;5048368;28;20030;-66
2021/10/27 04:04:51;;;;;;;62.22;8.35;;;12.50;91.00;;;;;;5050692;28;20045;-66
2021/10/27 04:07:17;;;;;;;78.35;8.60;;;12.50;91.00;;;;;;5050752;28;20602;-66
2021/10/27 04:09:42;;;;;;;66.50;8.50;;;12.60;91.00;;;;;;5047931;28;20075;-66
2021/10/27 04:12:09;;;;;;;76.70;8.27;;;12.60;90.90;;;;;;5046831;28;20498;-66
2021/10/27 04:14:35;;;;;;;87.85;8.57;;;12.60;90.90;;;;;;5048359;28;20396;-66
2021/10/27 04:17:01;;;;;;;58.72;8.05;;;12.60;90.90;;;;;;5049071;28;20025;-66
2021/10/27 04:19:26;;;;;;;69.50;7.82;;;12.70;90.80;;;;;;5049298;28;20083;-66
2021/10/27 04:21:52;;;;;;;80.50;8.35;;;12.70;90.80;;;;;;5048871;28;20033;-66
2021/10/27 04:24:18;;;;;;;65.25;8.18;;;12.70;90.70;;;;;;5047085;28;20402;-66
2021/10/27 04:26:44;;;;;;;86.72;9.52;;;12.80;90.70;;;;;;5050154;28;20037;-66
2021/10/27 04:29:09;;;;;;;70.60;8.27;;;12.70;91.20;;;;;;5047465;28;20491;-66
2021/10/27 04:31:37;;;;;;;54.55;9.68;;;12.70;90.80;;;;;;5046919;28;20104;-66
2021/10/27 04:34:03;;;;;;;93.43;9.07;;;12.70;91.00;;;;;;5045626;28;20041;-66
2021/10/27 04:36:29;;;;;;;104.13;9.27;;;12.70;91.10;;;;;;5040165;28;20555;-66
2021/10/27 04:38:55;;;;;;;95.93;10.65;;;12.70;91.30;;;;;;5041963;28;20105;-66
2021/10/27 04:41:20;;;;;;;69.30;8.40;;;12.70;91.20;;;;;;5040595;28;20026;-66
2021/10/27 04:43:47;;;;;;;67.43;8.43;;;12.60;91.20;;;;;;5049737;28;20051;-66
2021/10/27 04:46:13;;;;;;;44.85;9.00;;;12.60;91.30;;;;;;5047362;28;20503;-66
2021/10/27 04:48:39;;;;;;;55.80;9.10;;;12.60;91.60;;;;;;5049835;28;20031;-66
2021/10/27 04:51:04;;;;;;;42.92;7.53;;;12.60;91.70;;;;;;5045575;28;20031;-66
2021/10/27 04:53:30;;;;;;;72.97;9.70;;;12.60;91.60;;;;;;5049798;28;20768;-66
2021/10/27 04:55:56;;;;;;;30.15;7.45;;;12.60;91.60;;;;;;5045318;28;20036;-66
2021/10/27 04:58:22;;;;;;;45.45;8.93;;;12.60;91.70;;;;;;5050073;28;20025;-66
2021/10/27 05:00:48;;;;;;;52.03;9.13;;;12.60;91.70;;;;;;5050533;28;20029;-66
2021/10/27 05:03:14;;;;;;;52.67;8.38;;;12.60;91.70;;;;;;5049067;28;20018;-65
2021/10/27 05:05:53;;;;;;;65.43;9.35;;;12.60;91.90;;;;;;5047228;28;20040;-66
2021/10/27 05:08:22;;;;;;;36.75;8.70;;;12.50;91.80;;;;;;5044252;28;20076;-66
2021/10/27 05:10:51;;;;;;;32.33;7.07;;;12.60;91.90;;;;;;5047106;28;20404;-66
2021/10/27 05:13:19;;;;;;;35.50;7.88;;;12.50;91.90;;;;;;5049405;28;20104;-66
2021/10/27 05:15:48;;;;;;;60.13;8.77;;;12.50;92.00;;;;;;5045595;28;20041;-66
2021/10/27 05:18:15;;;;;;;51.20;7.75;;;12.60;92.00;;;;;;5047042;28;20031;-66
2021/10/27 05:20:41;;;;;;;42.55;7.82;;;12.60;92.00;;;;;;5048280;28;20060;-66
2021/10/27 05:23:07;;;;;;;36.20;8.40;;;12.60;92.00;;;;;;5045857;28;20033;-66
2021/10/27 05:25:33;;;;;;;30.70;8.85;;;12.60;91.90;;;;;;5047127;28;20045;-66
2021/10/27 05:27:59;;;;;;;43.70;9.40;;;12.60;91.90;;;;;;5047377;28;20056;-66
2021/10/27 05:30:24;;;;;;;38.17;9.10;;;12.60;91.90;;;;;;5047276;28;20124;-66
2021/10/27 05:32:56;;;;;;;68.18;10.43;;;12.60;91.90;;;;;;5045682;28;20017;-66
2021/10/27 05:35:22;;;;;;;52.28;15.55;;;12.70;91.90;;;;;;5047000;28;20041;-66
2021/10/27 05:37:48;;;;;;;64.97;12.43;;;12.70;91.90;;;;;;5046742;28;20467;-67
2021/10/27 05:40:14;;;;;;;76.15;9.48;;;12.70;91.90;;;;;;5045858;28;20147;-66
2021/10/27 05:42:40;;;;;;;41.92;9.23;;;12.70;92.00;;;;;;5049974;28;20061;-66
2021/10/27 05:45:07;;;;;;;38.63;10.20;;;12.80;92.00;;;;;;5050278;28;20029;-66
2021/10/27 05:47:33;;;;;;;44.78;9.63;;;12.80;91.90;;;;;;5044403;28;20033;-66
2021/10/27 05:50:22;;;;;;;23.30;7.85;;;12.80;91.90;;;;;;5048486;28;20029;-66
2021/10/27 05:55:36;;;;;;;32.92;10.52;;;12.80;91.90;;;;;;5042853;28;20043;-66
2021/10/27 05:58:03;;;;;;;30.40;8.52;;;12.80;91.90;;;;;;5050549;28;20054;-66
2021/10/27 06:00:30;;;;;;;35.10;9.52;;;12.80;91.90;;;;;;5049144;28;20005;-66
2021/10/27 06:02:55;;;;;;;33.85;10.35;;;12.80;92.40;;;;;;5049334;28;20025;-67
2021/10/27 06:05:21;;;;;;;34.58;11.45;;;12.80;92.00;;;;;;5047975;28;20458;-67
2021/10/27 06:07:48;;;;;;;37.80;11.82;;;12.80;92.00;;;;;;5049026;28;20021;-67
2021/10/27 06:10:19;;;;;;;31.60;13.15;;;12.80;91.90;;;;;;5050333;28;20455;-67
2021/10/27 06:12:46;;;;;;;40.00;15.25;;;12.80;91.90;;;;;;5050949;28;20087;-67
2021/10/27 06:15:12;;;;;;;47.97;17.25;;;12.80;91.90;;;;;;5049686;28;20029;-67
2021/10/27 06:17:38;;;;;;;46.40;15.88;;;12.90;91.90;;;;;;5051644;28;20029;-67
2021/10/27 06:20:05;;;;;;;33.67;14.13;;;12.90;91.80;;;;;;5045135;28;20028;-66
2021/10/27 06:22:31;;;;;;;34.53;13.18;;;12.90;91.90;;;;;;5035284;28;20095;-66
2021/10/27 06:24:59;;;;;;;39.00;12.82;;;12.90;91.70;;;;;;5048548;28;20120;-66
2021/10/27 06:27:25;;;;;;;25.33;10.32;;;12.90;91.70;;;;;;5045815;28;20027;-66
2021/10/27 06:30:04;;;;;;;21.40;11.50;;;12.90;91.60;;;;;;5048066;28;20025;-67
2021/10/27 06:35:17;;;;;;;29.20;12.73;;;12.90;91.40;;;;;;5049429;28;20055;-66
2021/10/27 06:45:58;;;;;;;24.27;10.00;;;12.90;91.40;;;;;;5047215;28;20550;-67
2021/10/27 06:48:21;;;;;;;21.13;9.60;;;13.00;91.30;;;;;;5044784;28;20025;-67
2021/10/27 06:50:47;;;;;;;33.08;10.48;;;13.00;91.30;;;;;;5038614;28;20033;-67
2021/10/27 06:53:13;;;;;;;25.25;9.27;;;13.00;91.40;;;;;;5036828;28;20029;-67
2021/10/27 06:55:40;;;;;;;25.17;9.07;;;13.00;91.40;;;;;;5035713;28;20114;-66
2021/10/27 06:58:07;;;;;;;22.35;8.88;;;13.00;91.50;;;;;;5039229;28;20496;-67
2021/10/27 07:00:44;;;;;;;34.65;10.05;;;13.00;92.00;;;;;;5043591;28;20025;-67
2021/10/27 07:16:26;;;;;;;19.95;10.00;;;12.90;91.10;;;;;;5041059;28;20139;-67
2021/10/27 07:18:52;;;;;;;17.98;9.75;;;13.00;91.00;;;;;;5034209;28;20112;-67
2021/10/27 07:21:19;;;;;;;16.77;8.90;;;13.00;91.00;;;;;;5041379;28;20037;-67
2021/10/27 07:23:44;;;;;;;16.08;8.48;;;13.00;90.90;;;;;;5043545;28;20504;-67
2021/10/27 07:26:11;;;;;;;18.55;9.00;;;13.00;90.90;;;;;;5047557;28;20095;-67
2021/10/27 07:28:36;;;;;;;17.50;7.53;;;13.10;90.90;;;;;;5049153;28;20033;-67
2021/10/27 07:31:04;;;;;;;30.45;9.52;;;13.10;90.80;;;;;;5050498;28;20029;-67
2021/10/27 07:33:31;;;;;;;25.90;8.75;;;13.10;90.80;;;;;;5054104;28;20048;-67
2021/10/27 07:36:26;;;;;;;17.35;7.40;;;13.10;90.70;;;;;;5052407;28;20091;-67
2021/10/27 07:41:37;;;;;;;22.48;9.45;;;13.10;90.70;;;;;;5052943;28;20027;-67
2021/10/27 07:44:13;;;;;;;20.27;9.45;;;13.10;90.70;;;;;;5051716;28;20142;-67
2021/10/27 07:46:43;;;;;;;27.02;10.15;;;13.20;90.70;;;;;;5039122;28;20123;-67
2021/10/27 07:49:09;;;;;;;19.92;9.80;;;13.20;90.60;;;;;;5052240;28;20498;-67
2021/10/27 07:51:36;;;;;;;19.98;9.23;;;13.30;90.60;;;;;;5049589;28;20614;-67
2021/10/27 07:54:05;;;;;;;23.65;11.20;;;13.30;90.50;;;;;;5050600;28;20060;-66
2021/10/27 07:56:32;;;;;;;21.15;10.75;;;13.40;90.50;;;;;;5046319;28;20159;-67
2021/10/27 07:59:00;;;;;;;23.58;9.60;;;13.50;90.40;;;;;;5051533;28;20128;-67
2021/10/27 08:01:27;;;;;;;26.35;10.52;;;13.50;90.30;;;;;;5050938;28;20499;-67
2021/10/27 08:03:55;;;;;;;16.35;8.60;;;13.60;90.20;;;;;;5046999;28;20147;-68
2021/10/27 08:06:20;;;;;;;18.52;8.93;;;13.70;90.10;;;;;;5051220;28;20589;-68
2021/10/27 08:08:47;;;;;;;14.98;7.22;;;13.80;90.10;;;;;;5051774;28;20056;-68
2021/10/27 08:11:14;;;;;;;19.25;8.50;;;13.90;90.00;;;;;;5052243;28;20024;-68
2021/10/27 08:13:40;;;;;;;14.85;7.80;;;13.90;89.80;;;;;;5050406;28;20126;-67
2021/10/27 08:16:06;;;;;;;19.05;9.43;;;13.90;89.70;;;;;;5050032;28;20521;-67
2021/10/27 08:18:31;;;;;;;24.67;13.55;;;14.00;89.80;;;;;;5048250;28;20029;-67
2021/10/27 08:20:58;;;;;;;14.50;7.50;;;14.10;89.70;;;;;;5042745;28;20033;-66
2021/10/27 08:23:29;;;;;;;15.48;8.88;;;14.10;89.40;;;;;;5046715;28;20498;-67
2021/10/27 08:25:57;;;;;;;;;;;14.10;89.50;;;;;;5051419;28;20041;-67
2021/10/27 08:28:41;;;;;;;13.80;7.28;;;14.20;89.30;;;;;;5054249;28;19909;-67
2021/10/27 08:31:25;;;;;;;17.00;7.57;;;14.20;89.00;;;;;;5049573;28;20037;-67
2021/10/27 08:36:22;;;;;;;13.05;8.07;;;14.40;89.00;;;;;;5061165;28;20399;-67
2021/10/27 08:38:50;;;;;;;12.98;8.00;;;14.40;88.50;;;;;;5055515;28;20451;-67
2021/10/27 08:41:16;;;;;;;20.45;9.98;;;14.40;88.40;;;;;;5047144;28;20151;-66
2021/10/27 08:43:42;;;;;;;14.48;9.40;;;14.50;88.00;;;;;;5038804;28;20491;-66
2021/10/27 08:46:10;;;;;;;12.93;7.88;;;14.60;87.60;;;;;;5036564;28;20047;-67
2021/10/27 08:48:38;;;;;;;18.40;9.27;;;14.60;87.30;;;;;;5051668;28;20582;-67
2021/10/27 08:51:05;;;;;;;20.10;9.20;;;14.70;87.50;;;;;;5041591;28;20021;-67
2021/10/27 08:53:33;;;;;;;14.27;7.60;;;14.70;87.50;;;;;;5044335;28;20025;-66
2021/10/27 08:56:02;;;;;;;15.40;8.07;;;14.80;87.30;;;;;;5048955;28;20112;-67
2021/10/27 08:58:32;;;;;;;9.95;5.18;;;14.80;87.00;;;;;;5050474;28;20037;-66
2021/10/27 09:01:25;;;;;;;11.90;5.60;;;14.80;86.60;;;;;;5035162;28;20052;-67
2021/10/27 09:04:12;;;;;;;10.77;5.43;;;14.90;86.50;;;;;;5047908;28;20350;-67
2021/10/27 09:06:59;;;;;;;14.73;7.35;;;15.10;85.80;;;;;;5036502;28;20033;-67
2021/10/27 10:05:28;;;;;;;10.05;5.75;;;15.00;86.20;;;;;;5008039;28;20238;-67
2021/10/27 10:07:54;;;;;;;14.95;7.03;;;14.90;86.70;;;;;;5007367;28;20030;-67
2021/10/27 10:10:20;;;;;;;14.27;7.05;;;14.90;86.90;;;;;;5007964;28;20540;-67
2021/10/27 10:12:49;;;;;;;11.38;6.20;;;14.90;86.60;;;;;;5008719;28;20038;-67
2021/10/27 10:15:22;;;;;;;11.00;5.43;;;15.00;86.20;;;;;;5010854;28;20439;-67
2021/10/27 10:17:50;;;;;;;15.68;7.93;;;15.00;85.70;;;;;;5006123;28;20128;-67
2021/10/27 10:20:16;;;;;;;17.42;9.20;;;15.00;86.10;;;;;;5013245;28;20046;-67
2021/10/27 10:22:43;;;;;;;18.65;8.32;;;15.00;86.30;;;;;;5007433;28;20493;-67
2021/10/27 10:25:15;;;;;;;16.65;8.82;;;15.00;85.90;;;;;;5005944;28;20045;-67
2021/10/27 10:27:56;;;;;;;19.13;11.25;;;15.00;86.00;;;;;;5010109;28;20069;-67
2021/10/27 10:30:35;;;;;;;25.95;12.38;;;14.90;86.20;;;;;;5011559;28;20034;-67
2021/10/27 10:33:07;;;;;;;20.45;10.82;;;14.90;86.10;;;;;;5046270;28;20039;-66
2021/10/27 10:38:48;;;;;;;15.57;7.72;;;14.90;84.80;;;;;;5045301;28;20052;-67
2021/10/27 10:56:30;;;;;;;14.35;9.05;;;15.20;83.40;;;;;;5035606;28;20047;-67
2021/10/27 11:38:48;;;;;;;8.30;4.50;;;15.60;81.40;;;;;;4990649;28;20129;-67
2021/10/27 11:41:30;;;;;;;10.32;5.55;;;15.70;80.30;;;;;;4988328;28;20030;-67
2021/10/27 11:46:26;;;;;;;7.70;5.55;;;15.80;80.20;;;;;;4974277;28;20039;-67
2021/10/27 11:48:58;;;;;;;10.50;6.35;;;15.90;80.30;;;;;;4987931;28;20026;-67
2021/10/27 11:51:24;;;;;;;11.13;6.90;;;16.00;79.70;;;;;;4989418;28;20577;-67
2021/10/27 11:53:50;;;;;;;11.27;7.97;;;16.00;79.10;;;;;;4988146;28;20038;-67
2021/10/27 11:56:22;;;;;;;12.13;7.35;;;16.00;79.50;;;;;;4989523;28;20043;-67
2021/10/27 11:58:50;;;;;;;11.02;6.47;;;16.00;79.20;;;;;;4987482;28;20117;-67
2021/10/27 12:01:43;;;;;;;10.93;7.38;;;16.10;79.00;;;;;;4989242;28;20082;-67
2021/10/27 12:04:13;;;;;;;16.92;7.95;;;16.10;78.90;;;;;;5009407;28;20081;-67
2021/10/27 12:14:54;;;;;;;14.88;8.75;;;17.60;73.60;;;;;;5050004;28;20432;-67
2021/10/27 12:19:51;;;;;;;9.93;6.18;;;17.80;72.80;;;;;;5051987;28;20480;-66
2021/10/27 12:22:20;;;;;;;7.97;5.55;;;18.20;71.10;;;;;;5051756;28;20403;-67
2021/10/27 12:24:53;;;;;;;11.40;5.25;;;18.40;70.40;;;;;;5052958;28;20106;-67
2021/10/27 12:27:27;;;;;;;9.45;4.78;;;20.50;66.60;;;;;;5052460;28;20064;-64
2021/10/27 12:29:55;;;;;;;10.45;5.93;;;19.50;64.10;;;;;;5052019;28;20025;-64
2021/10/27 12:32:23;;;;;;;8.63;5.35;;;19.30;65.70;;;;;;5051863;28;20857;-66
2021/10/27 12:34:54;;;;;;;10.95;4.93;;;21.80;61.70;;;;;;5051635;28;20052;-67
2021/10/27 12:37:42;;;;;;;12.27;6.28;;;21.10;60.40;;;;;;5051991;28;20119;-67
2021/10/27 12:40:25;;;;;;;10.60;4.60;;;20.80;60.90;;;;;;5049191;28;20025;-67
2021/10/27 12:43:03;;;;;;;10.23;4.70;;;20.20;60.50;;;;;;5049162;28;20033;-67
2021/10/27 12:45:35;;;;;;;8.30;4.38;;;19.60;62.90;;;;;;5052138;28;20156;-67
2021/10/27 12:48:05;;;;;;;10.73;5.40;;;19.40;64.00;;;;;;5051226;28;20028;-67
2021/10/27 12:50:32;;;;;;;7.85;4.63;;;19.40;64.50;;;;;;5051449;28;20125;-67
2021/10/27 12:53:03;;;;;;;10.43;4.55;;;20.10;63.10;;;;;;5050256;28;20059;-67
2021/10/27 12:55:39;;;;;;;9.07;4.28;;;22.70;59.20;;;;;;5051243;28;20028;-67
2021/10/27 12:58:15;;;;;;;9.23;4.20;;;23.40;54.80;;;;;;5051719;28;20044;-67
2021/10/27 13:00:59;;;;;;;7.72;4.35;;;23.40;55.10;;;;;;5036741;28;20040;-64
2021/10/27 13:03:58;;;;;;;8.43;4.28;;;24.00;51.80;;;;;;5039782;28;20065;-64
2021/10/27 13:14:28;;;;;;;8.25;4.15;;;27.70;43.50;;;;;;5042714;28;20190;-64
2021/10/27 13:17:27;;;;;;;7.65;3.97;;;26.10;44.20;;;;;;5050710;28;20074;-65
2021/10/27 13:22:40;;;;;;;10.73;4.75;;;24.30;46.50;;;;;;5035955;28;20078;-64
2021/10/27 13:33:24;;;;;;;7.53;4.30;;;21.80;53.00;;;;;;5044346;28;20120;-67
2021/10/27 13:35:51;;;;;;;9.63;4.93;;;21.30;54.30;;;;;;5050723;28;20048;-67
2021/10/27 13:38:19;;;;;;;8.40;4.50;;;21.00;55.30;;;;;;5050060;28;20377;-67
2021/10/27 13:40:46;;;;;;;10.77;4.32;;;20.70;56.20;;;;;;5045507;28;20037;-67
2021/10/27 13:45:58;;;;;;;9.88;4.10;;;20.80;57.80;;;;;;5033869;28;20033;-67
2021/10/27 14:05:57;;;;;;;8.38;4.40;;;22.40;50.90;;;;;;5047338;28;20031;-65
2021/10/27 14:07:43;;;;;;;10.32;4.25;;;24.40;48.40;;;;;;5042462;28;20094;-66
2021/10/27 14:10:16;;;;;;;11.98;4.00;;;25.70;45.80;;;;;;5046801;28;20636;-66
2021/10/27 14:12:49;;;;;;;12.02;3.78;;;26.60;43.30;;;;;;5036922;28;20376;-66
2021/10/27 14:59:07;;;;;;;7.03;3.60;;;25.20;43.10;;;;;;5001891;28;20063;-66
2021/10/27 15:20:50;;;;;;;15.27;6.95;;;20.60;55.80;;;;;;5045080;28;20087;-66
2021/10/27 15:23:24;;;;;;;13.55;6.95;;;20.20;57.40;;;;;;5048939;28;20075;-66
2021/10/27 15:34:06;;;;;;;11.80;6.28;;;19.20;60.30;;;;;;5045838;28;20048;-67
2021/10/27 15:36:54;;;;;;;13.45;6.32;;;19.10;60.80;;;;;;5044296;28;20039;-66
2021/10/27 15:52:34;;;;;;;13.93;6.40;;;18.30;64.40;;;;;;5038268;28;20040;-66
2021/10/27 15:55:00;;;;;;;14.23;6.75;;;18.20;64.50;;;;;;5057499;28;20059;-65
2021/10/27 15:57:25;;;;;;;13.18;7.38;;;18.10;65.40;;;;;;5046945;28;20025;-65
2021/10/27 15:59:54;;;;;;;13.50;7.18;;;18.00;65.50;;;;;;5055454;28;20051;-65
2021/10/27 16:02:21;;;;;;;13.60;7.30;;;18.00;65.80;;;;;;5049816;28;20075;-65
2021/10/27 16:04:47;;;;;;;11.85;6.05;;;17.80;66.00;;;;;;5048335;28;20022;-66
2021/10/27 16:07:16;;;;;;;12.35;6.20;;;17.80;66.50;;;;;;5049487;28;20523;-66
2021/10/27 16:09:48;;;;;;;14.00;6.75;;;17.80;66.70;;;;;;5039876;28;20043;-65
2021/10/27 16:12:14;;;;;;;16.98;7.30;;;17.80;67.00;;;;;;5045991;28;20047;-66
2021/10/27 16:14:40;;;;;;;10.98;7.15;;;17.70;67.80;;;;;;5046939;28;20559;-66
2021/10/27 16:17:07;;;;;;;18.70;9.05;;;17.60;68.30;;;;;;5049218;28;20472;-65
2021/10/27 16:19:33;;;;;;;15.98;8.35;;;17.50;68.60;;;;;;5049205;28;20029;-65
2021/10/27 16:21:59;;;;;;;17.33;8.63;;;17.40;68.80;;;;;;5051489;28;20025;-64
2021/10/27 16:24:26;;;;;;;17.65;9.23;;;17.30;69.50;;;;;;5051968;28;20043;-65
2021/10/27 16:26:53;;;;;;;13.65;9.18;;;17.10;70.10;;;;;;5053951;28;20056;-64
2021/10/27 16:29:19;;;;;;;15.50;9.20;;;17.10;71.20;;;;;;5053841;28;20112;-64
2021/10/27 16:31:45;;;;;;;16.27;9.77;;;17.00;71.20;;;;;;5047059;28;20029;-64
2021/10/27 16:34:13;;;;;;;14.52;9.25;;;16.90;71.30;;;;;;5049363;28;20037;-65
2021/10/27 16:36:39;;;;;;;14.90;8.48;;;16.80;71.60;;;;;;5047325;28;20033;-65
2021/10/27 16:39:06;;;;;;;14.35;8.63;;;16.70;71.60;;;;;;5045315;28;20013;-64
2021/10/27 16:41:32;;;;;;;18.52;9.35;;;16.60;71.70;;;;;;5045864;28;20035;-64
2021/10/27 16:43:58;;;;;;;14.55;8.00;;;16.50;71.40;;;;;;5045034;28;20519;-64
2021/10/27 16:46:24;;;;;;;32.75;11.50;;;16.40;72.10;;;;;;5049934;28;20036;-65
2021/10/27 16:48:50;;;;;;;16.23;8.65;;;16.30;72.30;;;;;;5051237;28;20090;-65
2021/10/27 16:51:17;;;;;;;17.15;8.90;;;16.20;72.60;;;;;;5046776;28;20029;-64
2021/10/27 16:53:42;;;;;;;20.33;9.13;;;16.10;72.90;;;;;;5047128;28;20104;-65
2021/10/27 16:56:09;;;;;;;16.92;9.13;;;16.00;73.00;;;;;;5046832;28;20522;-64
2021/10/27 16:58:34;;;;;;;20.83;9.48;;;15.90;73.10;;;;;;5033011;28;20033;-64
2021/10/27 17:01:01;;;;;;;17.38;10.15;;;15.80;73.20;;;;;;5043519;28;20036;-65
2021/10/27 17:03:29;;;;;;;15.80;9.02;;;15.70;73.40;;;;;;5046884;28;20029;-65
2021/10/27 17:05:57;;;;;;;14.70;8.00;;;15.60;73.90;;;;;;5046353;28;20102;-65
2021/10/27 17:08:25;;;;;;;15.80;8.32;;;15.50;74.20;;;;;;5046008;28;20598;-65
2021/10/27 17:10:52;;;;;;;18.92;8.20;;;15.40;74.10;;;;;;5047177;28;20060;-64
2021/10/27 17:13:19;;;;;;;14.85;9.00;;;15.30;74.20;;;;;;5050213;28;20029;-65
2021/10/27 17:15:46;;;;;;;13.90;8.25;;;15.20;74.50;;;;;;5047039;28;20040;-64
2021/10/27 17:18:14;;;;;;;12.98;8.13;;;15.10;74.80;;;;;;5048382;28;20036;-65
2021/10/27 17:20:41;;;;;;;12.60;7.90;;;15.10;74.90;;;;;;5045844;28;20025;-64
2021/10/27 17:23:14;;;;;;;11.50;7.70;;;15.00;75.00;;;;;;5041082;28;20033;-65